createdAt,value
2022-11-15T00:00:37.176Z,89.13
2022-11-15T00:01:37.445Z,89.23
2022-11-15T00:02:37.651Z,89.34
2022-11-15T00:03:38.018Z,89.23
2022-11-15T00:04:38.226Z,89.23
2022-11-15T00:05:38.564Z,89.23
2022-11-15T00:06:38.796Z,89.13
2022-11-15T00:07:55.087Z,89.13
2022-11-15T00:08:40.474Z,89.03
2022-11-15T00:09:43.388Z,89.03
2022-11-15T00:10:41.067Z,89.13
2022-11-15T00:11:40.355Z,89.13
2022-11-15T00:12:40.574Z,89.03
2022-11-15T00:13:40.954Z,89.13
2022-11-15T00:14:41.198Z,89.13
2022-11-15T00:15:41.397Z,89.13
2022-11-15T00:16:41.726Z,89.13
2022-11-15T00:17:42.058Z,88.92
2022-11-15T00:18:46.371Z,88.82
2022-11-15T00:19:43.646Z,88.51
2022-11-15T00:20:42.929Z,88.41
2022-11-15T00:21:43.260Z,88.41
2022-11-15T00:22:43.600Z,88.41
2022-11-15T00:23:43.839Z,88.56
2022-11-15T00:24:44.047Z,88.76
2022-11-15T00:25:44.407Z,88.76
2022-11-15T00:26:44.631Z,88.76
2022-11-15T00:27:44.990Z,88.76
2022-11-15T00:28:46.024Z,88.86
2022-11-15T00:29:46.649Z,88.86
2022-11-15T00:30:45.990Z,88.86
2022-11-15T00:31:47.199Z,88.96
2022-11-15T00:32:46.483Z,89.07
2022-11-15T00:33:46.756Z,89.17
2022-11-15T00:34:47.012Z,88.96
2022-11-15T00:35:47.243Z,88.86
2022-11-15T00:36:47.503Z,88.96
2022-11-15T00:37:47.747Z,89.07
2022-11-15T00:38:47.987Z,88.86
2022-11-15T00:39:48.221Z,88.86
2022-11-15T00:40:48.467Z,88.96
2022-11-15T00:41:48.724Z,89.17
2022-11-15T00:42:48.927Z,88.96
2022-11-15T00:43:49.335Z,88.76
2022-11-15T00:44:49.597Z,88.65
2022-11-15T00:45:49.866Z,88.70
2022-11-15T00:46:50.107Z,88.70
2022-11-15T00:47:50.353Z,88.80
2022-11-15T00:48:50.647Z,88.86
2022-11-15T00:49:50.901Z,88.96
2022-11-15T00:50:51.135Z,89.07
2022-11-15T00:51:51.367Z,88.96
2022-11-15T00:52:51.630Z,88.65
2022-11-15T00:53:51.838Z,88.45
2022-11-15T00:54:52.347Z,88.45
2022-11-15T00:55:52.543Z,88.56
2022-11-15T00:56:52.809Z,88.45
2022-11-15T00:57:53.055Z,88.45
2022-11-15T00:58:53.288Z,88.45
2022-11-15T00:59:53.532Z,88.45
2022-11-15T01:00:53.817Z,88.56
2022-11-15T01:01:54.141Z,88.56
2022-11-15T01:02:54.388Z,88.45
2022-11-15T01:04:00.006Z,88.56
2022-11-15T01:04:55.889Z,88.45
2022-11-15T01:05:55.249Z,88.35
2022-11-15T01:06:55.547Z,88.29
2022-11-15T01:07:55.860Z,88.29
2022-11-15T01:08:56.095Z,88.39
2022-11-15T01:09:56.338Z,88.39
2022-11-15T01:10:56.572Z,88.39
2022-11-15T01:11:56.810Z,88.29
2022-11-15T01:12:57.080Z,88.29
2022-11-15T01:13:57.299Z,88.49
2022-11-15T01:14:57.677Z,88.49
2022-11-15T01:15:57.910Z,88.59
2022-11-15T01:16:58.180Z,88.49
2022-11-15T01:17:58.430Z,88.49
2022-11-15T01:18:58.672Z,88.70
2022-11-15T01:19:58.919Z,88.80
2022-11-15T01:21:00.097Z,88.90
2022-11-15T01:21:59.382Z,89.01
2022-11-15T01:22:59.749Z,88.90
2022-11-15T01:23:59.993Z,89.11
2022-11-15T01:25:00.233Z,89.11
2022-11-15T01:26:00.611Z,89.01
2022-11-15T01:27:00.839Z,89.01
2022-11-15T01:28:01.222Z,88.90
2022-11-15T01:29:01.492Z,89.01
2022-11-15T01:30:01.704Z,88.90
2022-11-15T01:31:02.105Z,88.90
2022-11-15T01:32:02.341Z,88.90
2022-11-15T01:33:02.624Z,88.90
2022-11-15T01:34:02.857Z,89.01
2022-11-15T01:35:03.104Z,88.90
2022-11-15T01:36:03.339Z,88.59
2022-11-15T01:37:03.613Z,88.53
2022-11-15T01:38:03.896Z,88.49
2022-11-15T01:39:04.096Z,88.53
2022-11-15T01:40:04.437Z,88.32
2022-11-15T01:41:04.711Z,88.32
2022-11-15T01:42:04.926Z,88.32
2022-11-15T01:43:05.316Z,88.32
2022-11-15T01:44:05.546Z,88.53
2022-11-15T01:45:05.787Z,88.53
2022-11-15T01:46:06.008Z,88.53
2022-11-15T01:47:06.368Z,88.53
2022-11-15T01:48:06.617Z,88.53
2022-11-15T01:49:06.889Z,88.64
2022-11-15T01:50:07.124Z,88.64
2022-11-15T01:51:07.357Z,88.74
2022-11-15T01:52:07.591Z,88.74
2022-11-15T01:53:07.976Z,88.74
2022-11-15T01:54:08.201Z,88.68
2022-11-15T01:55:08.420Z,88.74
2022-11-15T01:56:08.767Z,88.74
2022-11-15T01:57:09.018Z,88.53
2022-11-15T01:58:09.257Z,88.47
2022-11-15T01:59:09.567Z,88.47
2022-11-15T02:00:09.856Z,88.37
2022-11-15T02:01:10.139Z,88.26
2022-11-15T02:02:10.384Z,88.37
2022-11-15T02:03:10.606Z,88.26
2022-11-15T02:04:10.879Z,88.26
2022-11-15T02:05:11.122Z,88.37
2022-11-15T02:06:11.349Z,88.37
2022-11-15T02:07:11.626Z,88.37
2022-11-15T02:08:11.864Z,88.37
2022-11-15T02:09:12.091Z,88.16
2022-11-15T02:10:12.312Z,88.06
2022-11-15T02:11:12.579Z,88.16
2022-11-15T02:12:12.801Z,88.06
2022-11-15T02:13:13.089Z,88.16
2022-11-15T02:14:13.362Z,88.16
2022-11-15T02:15:13.611Z,88.06
2022-11-15T02:16:13.861Z,87.95
2022-11-15T02:17:14.107Z,87.85
2022-11-15T02:18:14.355Z,87.85
2022-11-15T02:19:14.588Z,87.95
2022-11-15T02:20:14.801Z,87.95
2022-11-15T02:21:15.143Z,88.16
2022-11-15T02:22:15.512Z,88.06
2022-11-15T02:23:15.742Z,88.16
2022-11-15T02:24:15.973Z,88.16
2022-11-15T02:25:16.214Z,88.16
2022-11-15T02:26:16.454Z,88.06
2022-11-15T02:27:16.714Z,88.06
2022-11-15T02:28:16.974Z,88.16
2022-11-15T02:29:17.306Z,88.06
2022-11-15T02:30:17.529Z,87.85
2022-11-15T02:31:17.820Z,87.85
2022-11-15T02:32:18.055Z,87.85
2022-11-15T02:33:18.344Z,88.06
2022-11-15T02:34:18.598Z,87.95
2022-11-15T02:35:18.845Z,88.06
2022-11-15T02:36:19.086Z,87.95
2022-11-15T02:37:19.332Z,87.95
2022-11-15T02:38:19.583Z,88.06
2022-11-15T02:39:19.825Z,88.16
2022-11-15T02:40:20.084Z,88.06
2022-11-15T02:41:20.319Z,87.95
2022-11-15T02:42:20.556Z,87.85
2022-11-15T02:43:20.808Z,87.95
2022-11-15T02:44:21.085Z,87.95
2022-11-15T02:45:21.308Z,87.85
2022-11-15T02:46:21.556Z,87.85
2022-11-15T02:47:21.799Z,87.99
2022-11-15T02:48:22.027Z,87.99
2022-11-15T02:49:22.315Z,88.20
2022-11-15T02:50:22.598Z,88.31
2022-11-15T02:51:22.828Z,88.41
2022-11-15T02:52:23.096Z,88.20
2022-11-15T02:53:23.328Z,88.31
2022-11-15T02:54:23.553Z,88.41
2022-11-15T02:55:23.918Z,88.31
2022-11-15T02:56:24.160Z,88.31
2022-11-15T02:57:24.390Z,88.20
2022-11-15T02:58:24.668Z,88.20
2022-11-15T02:59:24.899Z,88.20
2022-11-15T03:00:25.130Z,88.41
2022-11-15T03:01:25.416Z,88.31
2022-11-15T03:02:25.700Z,88.41
2022-11-15T03:03:25.960Z,88.51
2022-11-15T03:04:26.208Z,88.71
2022-11-15T03:05:26.464Z,88.71
2022-11-15T03:06:26.702Z,88.82
2022-11-15T03:07:26.977Z,88.82
2022-11-15T03:08:27.213Z,88.61
2022-11-15T03:09:27.488Z,88.51
2022-11-15T03:10:27.711Z,88.41
2022-11-15T03:11:27.942Z,88.31
2022-11-15T03:12:28.210Z,88.41
2022-11-15T03:13:28.593Z,88.41
2022-11-15T03:14:29.722Z,88.51
2022-11-15T03:15:29.001Z,88.51
2022-11-15T03:16:29.333Z,88.41
2022-11-15T03:17:29.726Z,88.31
2022-11-15T03:18:29.986Z,88.20
2022-11-15T03:19:30.293Z,88.20
2022-11-15T03:20:30.553Z,88.20
2022-11-15T03:21:30.840Z,88.10
2022-11-15T03:22:31.134Z,88.20
2022-11-15T03:23:31.646Z,87.99
2022-11-15T03:24:31.628Z,87.99
2022-11-15T03:25:31.854Z,87.89
2022-11-15T03:26:32.125Z,87.79
2022-11-15T03:27:32.356Z,87.68
2022-11-15T03:28:32.632Z,87.79
2022-11-15T03:29:32.873Z,87.99
2022-11-15T03:30:33.114Z,87.99
2022-11-15T03:31:33.346Z,88.10
2022-11-15T03:32:33.576Z,87.79
2022-11-15T03:33:34.013Z,87.68
2022-11-15T03:34:34.044Z,87.79
2022-11-15T03:35:34.398Z,87.68
2022-11-15T03:36:34.639Z,87.73
2022-11-15T03:37:34.910Z,87.73
2022-11-15T03:38:35.199Z,87.52
2022-11-15T03:39:35.466Z,87.62
2022-11-15T03:40:35.705Z,87.73
2022-11-15T03:41:35.961Z,87.52
2022-11-15T03:42:36.227Z,87.62
2022-11-15T03:43:36.467Z,87.73
2022-11-15T03:44:36.736Z,87.62
2022-11-15T03:45:36.985Z,87.52
2022-11-15T03:46:37.223Z,87.83
2022-11-15T03:47:37.528Z,87.73
2022-11-15T03:48:37.827Z,87.73
2022-11-15T03:49:38.048Z,87.83
2022-11-15T03:50:38.319Z,87.93
2022-11-15T03:51:38.569Z,87.83
2022-11-15T03:52:38.788Z,87.83
2022-11-15T03:53:39.058Z,87.73
2022-11-15T03:54:39.299Z,87.52
2022-11-15T03:55:39.569Z,87.41
2022-11-15T03:56:39.820Z,87.41
2022-11-15T03:57:40.067Z,87.52
2022-11-15T03:58:40.320Z,87.62
2022-11-15T03:59:40.562Z,87.73
2022-11-15T04:00:40.780Z,87.62
2022-11-15T04:01:41.224Z,87.62
2022-11-15T04:02:41.441Z,87.73
2022-11-15T04:03:41.731Z,87.73
2022-11-15T04:04:41.985Z,87.73
2022-11-15T04:05:42.220Z,87.62
2022-11-15T04:06:42.435Z,87.62
2022-11-15T04:07:42.674Z,87.73
2022-11-15T04:08:42.971Z,87.73
2022-11-15T04:09:43.236Z,87.83
2022-11-15T04:10:43.472Z,87.83
2022-11-15T04:11:43.723Z,87.83
2022-11-15T04:12:44.078Z,87.83
2022-11-15T04:13:44.197Z,87.73
2022-11-15T04:14:44.424Z,87.83
2022-11-15T04:15:44.703Z,87.93
2022-11-15T04:16:44.942Z,87.93
2022-11-15T04:17:45.195Z,87.83
2022-11-15T04:18:45.414Z,88.14
2022-11-15T04:19:45.684Z,88.14
2022-11-15T04:20:45.922Z,88.14
2022-11-15T04:21:46.156Z,87.93
2022-11-15T04:22:46.394Z,87.83
2022-11-15T04:23:46.636Z,88.04
2022-11-15T04:24:46.949Z,88.04
2022-11-15T04:25:47.197Z,88.14
2022-11-15T04:26:47.453Z,88.04
2022-11-15T04:27:47.713Z,88.04
2022-11-15T04:28:47.939Z,88.04
2022-11-15T04:29:48.205Z,88.14
2022-11-15T04:30:48.446Z,88.14
2022-11-15T04:31:48.697Z,88.24
2022-11-15T04:32:48.947Z,88.24
2022-11-15T04:33:49.188Z,87.93
2022-11-15T04:34:49.419Z,87.73
2022-11-15T04:35:49.807Z,87.41
2022-11-15T04:36:50.049Z,87.41
2022-11-15T04:37:50.308Z,87.41
2022-11-15T04:38:50.567Z,87.62
2022-11-15T04:39:50.821Z,87.73
2022-11-15T04:40:51.049Z,87.83
2022-11-15T04:41:51.292Z,87.73
2022-11-15T04:42:51.637Z,87.62
2022-11-15T04:43:51.887Z,87.52
2022-11-15T04:44:52.149Z,87.41
2022-11-15T04:45:52.389Z,87.41
2022-11-15T04:46:52.640Z,87.31
2022-11-15T04:47:52.889Z,87.31
2022-11-15T04:48:58.329Z,87.31
2022-11-15T04:49:54.379Z,87.41
2022-11-15T04:50:53.671Z,87.52
2022-11-15T04:51:54.039Z,87.52
2022-11-15T04:52:54.312Z,87.62
2022-11-15T04:53:54.531Z,87.62
2022-11-15T04:54:54.907Z,87.52
2022-11-15T04:56:05.221Z,87.62
2022-11-15T04:56:55.482Z,87.83
2022-11-15T04:57:55.804Z,87.73
2022-11-15T04:58:56.094Z,87.62
2022-11-15T04:59:56.339Z,87.73
2022-11-15T05:00:56.705Z,87.73
2022-11-15T05:01:56.854Z,87.62
2022-11-15T05:02:57.146Z,87.62
2022-11-15T05:03:57.474Z,87.62
2022-11-15T05:04:57.941Z,87.41
2022-11-15T05:05:58.028Z,87.41
2022-11-15T05:06:58.382Z,87.41
2022-11-15T05:07:58.547Z,87.52
2022-11-15T05:08:58.831Z,87.52
2022-11-15T05:09:59.096Z,87.62
2022-11-15T05:10:59.425Z,87.73
2022-11-15T05:11:59.745Z,87.73
2022-11-15T05:13:00.118Z,87.83
2022-11-15T05:14:00.297Z,88.04
2022-11-15T05:15:00.656Z,87.97
2022-11-15T05:16:00.818Z,88.28
2022-11-15T05:17:01.102Z,88.18
2022-11-15T05:18:01.408Z,88.18
2022-11-15T05:19:01.727Z,88.28
2022-11-15T05:20:02.017Z,88.39
2022-11-15T05:21:02.322Z,88.49
2022-11-15T05:22:02.588Z,88.49
2022-11-15T05:23:02.916Z,88.59
2022-11-15T05:24:03.209Z,88.70
2022-11-15T05:25:03.487Z,88.70
2022-11-15T05:26:08.802Z,88.70
2022-11-15T05:27:05.055Z,88.80
2022-11-15T05:28:04.281Z,88.90
2022-11-15T05:29:04.599Z,88.90
2022-11-15T05:30:04.982Z,88.90
2022-11-15T05:31:05.241Z,89.11
2022-11-15T05:32:05.550Z,89.11
2022-11-15T05:33:05.884Z,88.96
2022-11-15T05:34:06.160Z,88.90
2022-11-15T05:35:06.464Z,88.90
2022-11-15T05:36:07.740Z,88.90
2022-11-15T05:37:06.971Z,88.90
2022-11-15T05:38:07.270Z,88.86
2022-11-15T05:39:09.162Z,88.86
2022-11-15T05:40:07.808Z,88.86
2022-11-15T05:41:08.043Z,88.55
2022-11-15T05:42:08.282Z,88.55
2022-11-15T05:43:08.589Z,88.55
2022-11-15T05:44:08.860Z,88.55
2022-11-15T05:45:09.121Z,88.65
2022-11-15T05:46:09.422Z,88.45
2022-11-15T05:47:09.704Z,88.24
2022-11-15T05:48:10.077Z,88.39
2022-11-15T05:49:10.326Z,88.39
2022-11-15T05:50:10.705Z,88.70
2022-11-15T05:51:10.921Z,88.49
2022-11-15T05:52:11.301Z,88.39
2022-11-15T05:53:11.518Z,88.39
2022-11-15T05:54:11.854Z,88.49
2022-11-15T05:55:12.207Z,88.59
2022-11-15T05:56:12.421Z,88.59
2022-11-15T05:57:12.684Z,88.70
2022-11-15T05:58:12.990Z,88.70
2022-11-15T05:59:13.256Z,88.80
2022-11-15T06:00:13.544Z,89.01
2022-11-15T06:01:13.796Z,89.01
2022-11-15T06:02:14.082Z,89.11
2022-11-15T06:03:14.335Z,88.90
2022-11-15T06:04:14.596Z,88.90
2022-11-15T06:05:14.926Z,89.01
2022-11-15T06:06:16.575Z,88.90
2022-11-15T06:07:15.537Z,89.01
2022-11-15T06:08:15.847Z,89.01
2022-11-15T06:09:16.126Z,89.11
2022-11-15T06:10:16.508Z,89.01
2022-11-15T06:11:16.676Z,89.01
2022-11-15T06:12:16.955Z,89.01
2022-11-15T06:13:17.757Z,89.01
2022-11-15T06:14:17.447Z,89.01
2022-11-15T06:15:17.798Z,89.01
2022-11-15T06:16:18.061Z,88.90
2022-11-15T06:17:18.348Z,88.80
2022-11-15T06:18:18.618Z,88.59
2022-11-15T06:19:18.888Z,88.49
2022-11-15T06:20:19.204Z,88.70
2022-11-15T06:21:19.467Z,88.59
2022-11-15T06:22:19.739Z,88.70
2022-11-15T06:23:20.106Z,88.59
2022-11-15T06:24:20.242Z,88.59
2022-11-15T06:25:20.625Z,88.59
2022-11-15T06:26:20.868Z,88.39
2022-11-15T06:27:21.018Z,88.28
2022-11-15T06:28:21.492Z,88.28
2022-11-15T06:29:21.700Z,88.28
2022-11-15T06:30:21.851Z,88.18
2022-11-15T06:31:22.124Z,88.18
2022-11-15T06:32:22.400Z,88.28
2022-11-15T06:33:23.128Z,88.49
2022-11-15T06:34:23.091Z,88.28
2022-11-15T06:35:23.203Z,88.18
2022-11-15T06:36:23.514Z,88.18
2022-11-15T06:37:24.111Z,88.22
2022-11-15T06:38:24.063Z,88.32
2022-11-15T06:39:24.352Z,88.43
2022-11-15T06:40:24.627Z,88.53
2022-11-15T06:41:24.904Z,88.32
2022-11-15T06:42:25.174Z,88.43
2022-11-15T06:43:25.573Z,88.53
2022-11-15T06:44:26.493Z,88.43
2022-11-15T06:45:26.003Z,88.43
2022-11-15T06:46:26.358Z,88.49
2022-11-15T06:47:26.614Z,88.18
2022-11-15T06:48:26.923Z,88.18
2022-11-15T06:49:27.225Z,88.28
2022-11-15T06:50:27.495Z,88.28
2022-11-15T06:51:27.744Z,88.07
2022-11-15T06:52:28.094Z,88.07
2022-11-15T06:53:28.445Z,88.07
2022-11-15T06:54:28.530Z,88.07
2022-11-15T06:55:28.836Z,88.28
2022-11-15T06:56:29.174Z,88.18
2022-11-15T06:57:29.437Z,87.97
2022-11-15T06:58:29.729Z,87.97
2022-11-15T06:59:30.115Z,87.97
2022-11-15T07:00:30.292Z,88.07
2022-11-15T07:01:30.571Z,88.07
2022-11-15T07:02:30.902Z,87.97
2022-11-15T07:03:31.446Z,87.97
2022-11-15T07:04:31.477Z,87.97
2022-11-15T07:05:31.878Z,87.76
2022-11-15T07:06:31.997Z,87.81
2022-11-15T07:07:32.451Z,87.81
2022-11-15T07:08:32.621Z,88.01
2022-11-15T07:09:32.770Z,88.01
2022-11-15T07:10:33.199Z,88.01
2022-11-15T07:11:33.380Z,87.87
2022-11-15T07:12:33.620Z,87.66
2022-11-15T07:13:34.793Z,87.81
2022-11-15T07:14:34.131Z,87.66
2022-11-15T07:15:34.431Z,87.60
2022-11-15T07:16:35.042Z,87.66
2022-11-15T07:17:35.106Z,87.56
2022-11-15T07:18:35.557Z,87.56
2022-11-15T07:19:36.327Z,87.56
2022-11-15T07:20:35.880Z,87.56
2022-11-15T07:21:36.322Z,87.35
2022-11-15T07:22:36.490Z,87.15
2022-11-15T07:23:36.775Z,87.04
2022-11-15T07:24:37.023Z,87.15
2022-11-15T07:25:37.270Z,87.15
2022-11-15T07:26:37.703Z,86.98
2022-11-15T07:27:37.880Z,87.08
2022-11-15T07:28:43.875Z,87.08
2022-11-15T07:29:38.431Z,87.18
2022-11-15T07:30:42.578Z,87.29
2022-11-15T07:31:40.022Z,87.39
2022-11-15T07:32:39.262Z,87.49
2022-11-15T07:33:39.894Z,87.39
2022-11-15T07:34:39.894Z,87.35
2022-11-15T07:35:40.174Z,87.39
2022-11-15T07:36:40.560Z,87.39
2022-11-15T07:37:40.751Z,87.60
2022-11-15T07:38:43.010Z,87.76
2022-11-15T07:39:41.347Z,87.76
2022-11-15T07:40:41.612Z,87.76
2022-11-15T07:41:41.874Z,87.66
2022-11-15T07:42:42.177Z,87.46
2022-11-15T07:43:42.484Z,87.35
2022-11-15T07:44:42.733Z,87.25
2022-11-15T07:45:43.057Z,87.15
2022-11-15T07:46:43.350Z,87.15
2022-11-15T07:47:43.633Z,86.94
2022-11-15T07:48:45.286Z,86.63
2022-11-15T07:49:44.224Z,86.32
2022-11-15T07:50:44.508Z,86.52
2022-11-15T07:51:44.831Z,86.52
2022-11-15T07:52:45.245Z,86.52
2022-11-15T07:53:45.540Z,86.63
2022-11-15T07:54:45.757Z,86.73
2022-11-15T07:55:45.947Z,86.83
2022-11-15T07:56:46.295Z,86.83
2022-11-15T07:57:46.556Z,86.73
2022-11-15T07:59:08.358Z,86.73
2022-11-15T07:59:47.174Z,86.73
2022-11-15T08:00:47.591Z,86.73
2022-11-15T08:01:47.807Z,86.73
2022-11-15T08:02:48.141Z,86.63
2022-11-15T08:03:48.227Z,86.63
2022-11-15T08:04:48.558Z,86.73
2022-11-15T08:05:48.893Z,86.83
2022-11-15T08:06:49.114Z,86.69
2022-11-15T08:07:52.589Z,86.69
2022-11-15T08:08:49.780Z,86.59
2022-11-15T08:09:49.960Z,86.59
2022-11-15T08:10:50.296Z,86.69
2022-11-15T08:11:50.619Z,86.59
2022-11-15T08:12:50.946Z,86.69
2022-11-15T08:13:51.171Z,86.49
2022-11-15T08:14:51.469Z,86.49
2022-11-15T08:15:57.400Z,86.49
2022-11-15T08:16:52.961Z,86.49
2022-11-15T08:17:52.411Z,86.18
2022-11-15T08:18:52.574Z,86.28
2022-11-15T08:19:52.873Z,86.38
2022-11-15T08:20:53.191Z,86.55
2022-11-15T08:21:53.661Z,86.65
2022-11-15T08:22:53.775Z,86.65
2022-11-15T08:23:54.101Z,86.65
2022-11-15T08:24:54.413Z,86.65
2022-11-15T08:25:54.712Z,86.55
2022-11-15T08:26:55.070Z,86.34
2022-11-15T08:27:55.253Z,86.24
2022-11-15T08:28:55.594Z,85.93
2022-11-15T08:29:59.426Z,85.93
2022-11-15T08:30:56.216Z,85.93
2022-11-15T08:31:56.554Z,85.83
2022-11-15T08:32:56.863Z,85.58
2022-11-15T08:33:57.147Z,85.41
2022-11-15T08:34:57.448Z,85.41
2022-11-15T08:35:57.733Z,85.31
2022-11-15T08:36:58.058Z,85.21
2022-11-15T08:37:58.315Z,85.41
2022-11-15T08:38:58.585Z,85.62
2022-11-15T08:39:58.889Z,85.93
2022-11-15T08:40:59.185Z,86.03
2022-11-15T08:41:59.473Z,86.30
2022-11-15T08:42:59.772Z,86.41
2022-11-15T08:44:00.040Z,86.41
2022-11-15T08:45:00.329Z,86.51
2022-11-15T08:46:00.582Z,86.30
2022-11-15T08:47:00.960Z,85.99
2022-11-15T08:48:01.191Z,85.78
2022-11-15T08:49:01.385Z,85.78
2022-11-15T08:50:01.678Z,85.78
2022-11-15T08:51:01.978Z,85.78
2022-11-15T08:52:02.258Z,85.68
2022-11-15T08:53:02.577Z,85.75
2022-11-15T08:54:02.845Z,85.85
2022-11-15T08:55:03.127Z,85.64
2022-11-15T08:56:03.420Z,85.54
2022-11-15T08:57:03.690Z,85.64
2022-11-15T08:58:03.954Z,85.44
2022-11-15T08:59:04.300Z,85.23
2022-11-15T09:00:04.632Z,85.23
2022-11-15T09:01:04.920Z,85.23
2022-11-15T09:02:05.285Z,85.13
2022-11-15T09:03:05.469Z,85.02
2022-11-15T09:04:05.730Z,84.92
2022-11-15T09:05:06.017Z,85.23
2022-11-15T09:06:06.283Z,85.33
2022-11-15T09:07:06.588Z,85.54
2022-11-15T09:08:32.392Z,85.64
2022-11-15T09:09:08.148Z,85.85
2022-11-15T09:10:07.393Z,85.95
2022-11-15T09:11:07.682Z,85.75
2022-11-15T09:12:07.964Z,85.75
2022-11-15T09:13:08.241Z,85.75
2022-11-15T09:14:08.532Z,85.85
2022-11-15T09:15:08.825Z,85.85
2022-11-15T09:16:09.084Z,85.85
2022-11-15T09:17:09.417Z,85.85
2022-11-15T09:18:09.682Z,85.95
2022-11-15T09:19:11.828Z,86.16
2022-11-15T09:20:10.263Z,86.05
2022-11-15T09:21:10.565Z,85.85
2022-11-15T09:22:10.860Z,85.75
2022-11-15T09:23:11.127Z,85.85
2022-11-15T09:24:11.507Z,85.95
2022-11-15T09:25:11.675Z,86.05
2022-11-15T09:26:11.965Z,86.16
2022-11-15T09:27:12.260Z,86.12
2022-11-15T09:28:12.696Z,86.22
2022-11-15T09:29:13.759Z,86.22
2022-11-15T09:30:13.105Z,86.22
2022-11-15T09:31:16.854Z,86.12
2022-11-15T09:32:14.653Z,86.02
2022-11-15T09:33:14.024Z,86.02
2022-11-15T09:34:14.300Z,86.08
2022-11-15T09:35:14.577Z,85.87
2022-11-15T09:36:14.898Z,85.67
2022-11-15T09:37:15.167Z,85.25
2022-11-15T09:38:15.479Z,85.15
2022-11-15T09:39:15.748Z,85.15
2022-11-15T09:40:16.047Z,85.25
2022-11-15T09:41:16.333Z,85.46
2022-11-15T09:42:16.607Z,85.46
2022-11-15T09:43:16.888Z,85.46
2022-11-15T09:44:21.176Z,85.57
2022-11-15T09:45:18.451Z,85.67
2022-11-15T09:46:17.678Z,85.57
2022-11-15T09:47:17.967Z,85.71
2022-11-15T09:48:18.239Z,85.91
2022-11-15T09:49:18.529Z,86.12
2022-11-15T09:50:18.839Z,86.12
2022-11-15T09:51:19.159Z,86.02
2022-11-15T09:52:19.421Z,86.12
2022-11-15T09:53:28.726Z,86.32
2022-11-15T09:55:21.231Z,86.22
2022-11-15T09:56:20.569Z,86.22
2022-11-15T09:57:20.853Z,86.12
2022-11-15T09:58:21.151Z,86.08
2022-11-15T09:59:21.412Z,86.08
2022-11-15T10:01:22.999Z,86.39
2022-11-15T10:02:22.300Z,86.29
2022-11-15T10:03:22.612Z,86.18
2022-11-15T10:04:22.924Z,86.18
2022-11-15T10:05:23.165Z,86.29
2022-11-15T10:06:23.465Z,86.18
2022-11-15T10:07:23.802Z,86.29
2022-11-15T10:08:24.063Z,86.18
2022-11-15T10:09:24.346Z,86.18
2022-11-15T10:10:24.638Z,86.18
2022-11-15T10:11:40.307Z,86.15
2022-11-15T10:12:26.173Z,85.94
2022-11-15T10:13:25.496Z,85.63
2022-11-15T10:14:25.761Z,85.63
2022-11-15T10:15:26.109Z,85.52
2022-11-15T10:16:26.429Z,85.42
2022-11-15T10:17:26.723Z,85.31
2022-11-15T10:18:27.014Z,85.11
2022-11-15T10:19:27.276Z,85.22
2022-11-15T10:20:27.588Z,85.31
2022-11-15T10:21:27.857Z,85.52
2022-11-15T10:22:28.159Z,85.63
2022-11-15T10:23:28.436Z,85.63
2022-11-15T10:24:28.729Z,85.22
2022-11-15T10:25:29.018Z,85.22
2022-11-15T10:26:29.308Z,85.31
2022-11-15T10:27:29.578Z,85.42
2022-11-15T10:28:30.317Z,85.52
2022-11-15T10:29:30.118Z,85.49
2022-11-15T10:30:30.451Z,85.38
2022-11-15T10:31:30.723Z,85.28
2022-11-15T10:32:30.991Z,85.17
2022-11-15T10:33:31.410Z,85.22
2022-11-15T10:34:31.547Z,85.31
2022-11-15T10:35:31.849Z,85.42
2022-11-15T10:36:32.151Z,85.52
2022-11-15T10:37:32.421Z,85.63
2022-11-15T10:38:33.147Z,85.59
2022-11-15T10:39:33.001Z,85.63
2022-11-15T10:40:33.309Z,85.52
2022-11-15T10:41:33.571Z,85.73
2022-11-15T10:42:33.861Z,85.83
2022-11-15T10:43:34.173Z,85.83
2022-11-15T10:44:34.464Z,85.94
2022-11-15T10:45:34.784Z,86.21
2022-11-15T10:46:50.364Z,86.31
2022-11-15T10:47:39.730Z,86.41
2022-11-15T10:48:35.643Z,86.31
2022-11-15T10:49:35.927Z,86.31
2022-11-15T10:50:36.214Z,86.21
2022-11-15T10:51:36.502Z,86.10
2022-11-15T10:52:36.933Z,86.10
2022-11-15T10:53:37.051Z,86.21
2022-11-15T10:54:37.341Z,86.31
2022-11-15T10:56:43.709Z,86.31
2022-11-15T10:57:43.835Z,86.31
2022-11-15T10:58:44.195Z,86.31
2022-11-15T10:59:44.604Z,86.21
2022-11-15T11:00:44.805Z,86.16
2022-11-15T11:01:45.158Z,86.06
2022-11-15T11:02:45.446Z,86.06
2022-11-15T11:03:45.724Z,86.16
2022-11-15T11:04:45.994Z,86.16
2022-11-15T11:05:46.277Z,86.16
2022-11-15T11:06:46.602Z,86.27
2022-11-15T11:07:46.883Z,86.27
2022-11-15T11:08:47.174Z,86.27
2022-11-15T11:09:47.431Z,86.27
2022-11-15T11:10:52.378Z,86.27
2022-11-15T11:11:48.968Z,86.27
2022-11-15T11:12:48.297Z,86.37
2022-11-15T11:13:48.556Z,86.16
2022-11-15T11:14:48.818Z,85.96
2022-11-15T11:15:49.129Z,86.06
2022-11-15T11:16:49.388Z,86.16
2022-11-15T11:17:49.670Z,86.37
2022-11-15T11:18:49.957Z,86.47
2022-11-15T11:19:50.228Z,86.37
2022-11-15T11:20:50.526Z,86.37
2022-11-15T11:21:50.786Z,86.37
2022-11-15T11:22:51.056Z,86.47
2022-11-15T11:23:51.378Z,86.47
2022-11-15T11:24:51.659Z,86.47
2022-11-15T11:25:51.929Z,86.47
2022-11-15T11:26:56.834Z,86.58
2022-11-15T11:27:53.434Z,86.58
2022-11-15T11:28:52.758Z,86.68
2022-11-15T11:29:53.053Z,86.79
2022-11-15T11:30:53.339Z,86.88
2022-11-15T11:31:53.590Z,86.88
2022-11-15T11:32:55.454Z,86.88
2022-11-15T11:33:54.083Z,87.09
2022-11-15T11:34:54.353Z,87.15
2022-11-15T11:35:54.668Z,87.15
2022-11-15T11:36:54.941Z,87.05
2022-11-15T11:37:55.213Z,87.05
2022-11-15T11:38:56.177Z,86.85
2022-11-15T11:39:55.850Z,86.64
2022-11-15T11:40:56.139Z,86.54
2022-11-15T11:41:56.442Z,86.43
2022-11-15T11:42:56.726Z,86.43
2022-11-15T11:43:57.322Z,86.54
2022-11-15T11:44:57.298Z,86.74
2022-11-15T11:45:57.568Z,86.85
2022-11-15T11:46:57.851Z,86.95
2022-11-15T11:47:58.111Z,86.95
2022-11-15T11:48:58.427Z,87.05
2022-11-15T11:49:58.697Z,87.19
2022-11-15T11:50:58.990Z,87.30
2022-11-15T11:51:59.301Z,87.51
2022-11-15T11:53:03.869Z,87.60
2022-11-15T11:53:59.889Z,87.81
2022-11-15T11:55:00.170Z,87.92
2022-11-15T11:56:00.461Z,87.92
2022-11-15T11:57:00.775Z,88.02
2022-11-15T11:58:01.049Z,88.02
2022-11-15T11:59:01.336Z,88.12
2022-11-15T12:00:01.706Z,88.12
2022-11-15T12:01:01.871Z,87.92
2022-11-15T12:02:02.242Z,87.71
2022-11-15T12:03:02.533Z,87.71
2022-11-15T12:04:02.752Z,87.60
2022-11-15T12:05:03.041Z,87.71
2022-11-15T12:06:03.330Z,87.81
2022-11-15T12:07:03.612Z,88.02
2022-11-15T12:08:04.407Z,87.98
2022-11-15T12:09:04.196Z,87.98
2022-11-15T12:10:04.465Z,87.98
2022-11-15T12:11:04.762Z,87.98
2022-11-15T12:12:05.046Z,88.08
2022-11-15T12:13:05.346Z,87.98
2022-11-15T12:14:05.601Z,87.98
2022-11-15T12:15:05.878Z,87.98
2022-11-15T12:16:10.293Z,87.67
2022-11-15T12:17:06.471Z,87.46
2022-11-15T12:18:06.738Z,87.36
2022-11-15T12:19:07.018Z,87.26
2022-11-15T12:20:07.284Z,87.36
2022-11-15T12:21:07.579Z,87.26
2022-11-15T12:22:07.894Z,87.36
2022-11-15T12:23:08.193Z,87.36
2022-11-15T12:24:08.488Z,87.46
2022-11-15T12:25:08.768Z,87.46
2022-11-15T12:26:09.118Z,87.36
2022-11-15T12:27:10.196Z,87.36
2022-11-15T12:28:09.648Z,87.46
2022-11-15T12:29:09.925Z,87.57
2022-11-15T12:30:10.211Z,87.67
2022-11-15T12:31:10.503Z,87.67
2022-11-15T12:32:10.771Z,87.57
2022-11-15T12:33:11.064Z,87.57
2022-11-15T12:34:11.333Z,87.57
2022-11-15T12:35:11.598Z,87.67
2022-11-15T12:36:11.885Z,87.67
2022-11-15T12:37:12.155Z,87.57
2022-11-15T12:38:12.427Z,87.57
2022-11-15T12:39:12.715Z,87.57
2022-11-15T12:40:12.981Z,87.67
2022-11-15T12:41:13.279Z,87.67
2022-11-15T12:42:13.577Z,87.77
2022-11-15T12:43:13.853Z,87.94
2022-11-15T12:44:14.130Z,87.94
2022-11-15T12:45:14.402Z,88.04
2022-11-15T12:46:14.681Z,87.94
2022-11-15T12:47:17.290Z,87.84
2022-11-15T12:48:16.233Z,87.73
2022-11-15T12:49:15.443Z,87.63
2022-11-15T12:50:15.765Z,87.52
2022-11-15T12:51:16.066Z,87.52
2022-11-15T12:52:16.336Z,87.52
2022-11-15T12:53:16.602Z,87.63
2022-11-15T12:54:16.874Z,87.73
2022-11-15T12:55:17.173Z,87.84
2022-11-15T12:56:17.465Z,87.94
2022-11-15T12:57:17.771Z,87.84
2022-11-15T12:58:18.062Z,87.84
2022-11-15T12:59:18.355Z,87.94